sensor_id;sensor_type;location;lat;lon;timestamp;temperature;humidity
19292;DHT22;9779;51.756;7.450;2023-02-19T00:01:11;9.80;99.90
19292;DHT22;9779;51.756;7.450;2023-02-19T00:03:38;9.80;99.90
19292;DHT22;9779;51.756;7.450;2023-02-19T00:06:05;9.80;99.90
19292;DHT22;9779;51.756;7.450;2023-02-19T00:08:32;9.80;99.90
19292;DHT22;9779;51.756;7.450;2023-02-19T00:11:06;9.80;99.90
19292;DHT22;9779;51.756;7.450;2023-02-19T00:13:36;9.80;99.90
19292;DHT22;9779;51.756;7.450;2023-02-19T00:16:13;9.80;99.90
19292;DHT22;9779;51.756;7.450;2023-02-19T00:18:40;9.80;99.90
19292;DHT22;9779;51.756;7.450;2023-02-19T00:21:06;9.80;99.90
19292;DHT22;9779;51.756;7.450;2023-02-19T00:23:32;9.80;99.90
19292;DHT22;9779;51.756;7.450;2023-02-19T00:26:05;9.80;99.90
19292;DHT22;9779;51.756;7.450;2023-02-19T00:28:31;9.80;99.90
19292;DHT22;9779;51.756;7.450;2023-02-19T00:31:22;9.90;99.90
19292;DHT22;9779;51.756;7.450;2023-02-19T00:33:50;9.80;99.90
19292;DHT22;9779;51.756;7.450;2023-02-19T00:36:16;9.80;99.90
19292;DHT22;9779;51.756;7.450;2023-02-19T00:38:43;9.80;99.90
19292;DHT22;9779;51.756;7.450;2023-02-19T00:41:09;9.80;99.90
19292;DHT22;9779;51.756;7.450;2023-02-19T00:46:10;9.90;99.90
19292;DHT22;9779;51.756;7.450;2023-02-19T00:48:36;9.80;99.90
19292;DHT22;9779;51.756;7.450;2023-02-19T00:51:02;9.90;99.90
19292;DHT22;9779;51.756;7.450;2023-02-19T00:53:27;9.90;99.90
19292;DHT22;9779;51.756;7.450;2023-02-19T00:55:53;9.90;99.90
19292;DHT22;9779;51.756;7.450;2023-02-19T00:58:18;9.90;99.90
19292;DHT22;9779;51.756;7.450;2023-02-19T01:00:44;9.80;99.90
19292;DHT22;9779;51.756;7.450;2023-02-19T01:03:10;9.90;99.90
19292;DHT22;9779;51.756;7.450;2023-02-19T01:05:35;9.90;99.90
19292;DHT22;9779;51.756;7.450;2023-02-19T01:08:01;9.90;99.90
19292;DHT22;9779;51.756;7.450;2023-02-19T01:10:26;9.90;99.90
19292;DHT22;9779;51.756;7.450;2023-02-19T01:12:52;9.90;99.90
19292;DHT22;9779;51.756;7.450;2023-02-19T01:15:18;9.80;99.90
19292;DHT22;9779;51.756;7.450;2023-02-19T01:17:43;9.90;99.90
19292;DHT22;9779;51.756;7.450;2023-02-19T01:20:09;9.80;99.90
19292;DHT22;9779;51.756;7.450;2023-02-19T01:22:34;9.90;99.90
19292;DHT22;9779;51.756;7.450;2023-02-19T01:25:00;9.80;99.90
19292;DHT22;9779;51.756;7.450;2023-02-19T01:27:26;9.80;99.90
19292;DHT22;9779;51.756;7.450;2023-02-19T01:29:51;9.80;99.90
19292;DHT22;9779;51.756;7.450;2023-02-19T01:32:17;9.80;99.90
19292;DHT22;9779;51.756;7.450;2023-02-19T01:34:42;9.80;99.90
19292;DHT22;9779;51.756;7.450;2023-02-19T01:37:08;9.80;99.90
19292;DHT22;9779;51.756;7.450;2023-02-19T01:39:37;9.80;99.90
19292;DHT22;9779;51.756;7.450;2023-02-19T01:42:05;9.80;99.90
19292;DHT22;9779;51.756;7.450;2023-02-19T01:47:00;9.80;99.90
19292;DHT22;9779;51.756;7.450;2023-02-19T01:49:29;9.80;99.90
19292;DHT22;9779;51.756;7.450;2023-02-19T01:52:05;9.80;99.90
19292;DHT22;9779;51.756;7.450;2023-02-19T01:54:36;9.80;99.90
19292;DHT22;9779;51.756;7.450;2023-02-19T01:57:06;9.80;99.90
19292;DHT22;9779;51.756;7.450;2023-02-19T01:59:33;9.80;99.90
19292;DHT22;9779;51.756;7.450;2023-02-19T02:01:59;9.80;99.90
19292;DHT22;9779;51.756;7.450;2023-02-19T02:04:25;9.80;99.90
19292;DHT22;9779;51.756;7.450;2023-02-19T02:06:54;9.80;99.90
19292;DHT22;9779;51.756;7.450;2023-02-19T02:09:27;9.70;99.90
19292;DHT22;9779;51.756;7.450;2023-02-19T02:12:12;9.70;99.90
19292;DHT22;9779;51.756;7.450;2023-02-19T02:14:41;9.70;99.90
19292;DHT22;9779;51.756;7.450;2023-02-19T02:20:01;9.70;99.90
19292;DHT22;9779;51.756;7.450;2023-02-19T02:22:37;9.70;99.90
19292;DHT22;9779;51.756;7.450;2023-02-19T02:25:26;9.70;99.90
19292;DHT22;9779;51.756;7.450;2023-02-19T02:30:51;9.70;99.90
19292;DHT22;9779;51.756;7.450;2023-02-19T02:36:20;9.60;99.90
19292;DHT22;9779;51.756;7.450;2023-02-19T02:38:48;9.70;99.90
19292;DHT22;9779;51.756;7.450;2023-02-19T02:41:14;9.60;99.90
19292;DHT22;9779;51.756;7.450;2023-02-19T02:43:41;9.60;99.90
19292;DHT22;9779;51.756;7.450;2023-02-19T02:46:10;9.60;99.90
19292;DHT22;9779;51.756;7.450;2023-02-19T02:48:48;9.60;99.90
19292;DHT22;9779;51.756;7.450;2023-02-19T02:56:57;9.60;99.90
19292;DHT22;9779;51.756;7.450;2023-02-19T02:59:26;9.60;99.90
19292;DHT22;9779;51.756;7.450;2023-02-19T03:01:56;9.60;99.90
19292;DHT22;9779;51.756;7.450;2023-02-19T03:04:59;9.60;99.90
19292;DHT22;9779;51.756;7.450;2023-02-19T03:07:53;9.60;99.90
19292;DHT22;9779;51.756;7.450;2023-02-19T03:10:28;9.60;99.90
19292;DHT22;9779;51.756;7.450;2023-02-19T03:12:56;9.50;99.90
19292;DHT22;9779;51.756;7.450;2023-02-19T03:15:55;9.50;99.90
19292;DHT22;9779;51.756;7.450;2023-02-19T03:18:48;9.50;99.90
19292;DHT22;9779;51.756;7.450;2023-02-19T03:21:36;9.50;99.90
19292;DHT22;9779;51.756;7.450;2023-02-19T03:24:05;9.50;99.90
19292;DHT22;9779;51.756;7.450;2023-02-19T03:26:51;9.50;99.90
19292;DHT22;9779;51.756;7.450;2023-02-19T03:29:21;9.50;99.90
19292;DHT22;9779;51.756;7.450;2023-02-19T03:31:51;9.50;99.90
19292;DHT22;9779;51.756;7.450;2023-02-19T03:34:21;9.50;99.90
19292;DHT22;9779;51.756;7.450;2023-02-19T03:36:54;9.50;99.90
19292;DHT22;9779;51.756;7.450;2023-02-19T03:39:21;9.50;99.90
19292;DHT22;9779;51.756;7.450;2023-02-19T03:44:39;9.40;99.90
19292;DHT22;9779;51.756;7.450;2023-02-19T03:47:29;9.30;99.90
19292;DHT22;9779;51.756;7.450;2023-02-19T03:50:23;9.30;99.90
19292;DHT22;9779;51.756;7.450;2023-02-19T03:52:52;9.30;99.90
19292;DHT22;9779;51.756;7.450;2023-02-19T04:01:42;9.30;99.90
19292;DHT22;9779;51.756;7.450;2023-02-19T04:06:30;9.30;99.90
19292;DHT22;9779;51.756;7.450;2023-02-19T04:08:59;9.30;99.90
19292;DHT22;9779;51.756;7.450;2023-02-19T04:11:26;9.30;99.90
19292;DHT22;9779;51.756;7.450;2023-02-19T04:14:02;9.30;99.90
19292;DHT22;9779;51.756;7.450;2023-02-19T04:16:31;9.30;99.90
19292;DHT22;9779;51.756;7.450;2023-02-19T04:19:02;9.30;99.90
19292;DHT22;9779;51.756;7.450;2023-02-19T04:21:30;9.30;99.90
19292;DHT22;9779;51.756;7.450;2023-02-19T04:24:02;9.30;99.90
19292;DHT22;9779;51.756;7.450;2023-02-19T04:26:31;9.30;99.90
19292;DHT22;9779;51.756;7.450;2023-02-19T04:28:58;9.20;99.90
19292;DHT22;9779;51.756;7.450;2023-02-19T04:31:24;9.30;99.90
19292;DHT22;9779;51.756;7.450;2023-02-19T04:33:51;9.30;99.90
19292;DHT22;9779;51.756;7.450;2023-02-19T04:36:16;9.30;99.90
19292;DHT22;9779;51.756;7.450;2023-02-19T04:38:42;9.20;99.90
19292;DHT22;9779;51.756;7.450;2023-02-19T04:41:08;9.20;99.90
19292;DHT22;9779;51.756;7.450;2023-02-19T04:43:34;9.30;99.90
19292;DHT22;9779;51.756;7.450;2023-02-19T04:46:00;9.30;99.90
19292;DHT22;9779;51.756;7.450;2023-02-19T04:48:26;9.20;99.90
19292;DHT22;9779;51.756;7.450;2023-02-19T04:50:52;9.20;99.90
19292;DHT22;9779;51.756;7.450;2023-02-19T04:53:17;9.20;99.90
19292;DHT22;9779;51.756;7.450;2023-02-19T04:55:43;9.20;99.90
19292;DHT22;9779;51.756;7.450;2023-02-19T04:58:09;9.20;99.90
19292;DHT22;9779;51.756;7.450;2023-02-19T05:00:34;9.20;99.90
19292;DHT22;9779;51.756;7.450;2023-02-19T05:03:00;9.20;99.90
19292;DHT22;9779;51.756;7.450;2023-02-19T05:05:26;9.10;99.90
19292;DHT22;9779;51.756;7.450;2023-02-19T05:07:53;9.10;99.90
19292;DHT22;9779;51.756;7.450;2023-02-19T05:10:18;9.20;99.90
19292;DHT22;9779;51.756;7.450;2023-02-19T05:12:44;9.10;99.90
19292;DHT22;9779;51.756;7.450;2023-02-19T05:15:09;9.10;99.90
19292;DHT22;9779;51.756;7.450;2023-02-19T05:17:35;9.10;99.90
19292;DHT22;9779;51.756;7.450;2023-02-19T05:20:00;9.10;99.90
19292;DHT22;9779;51.756;7.450;2023-02-19T05:22:28;9.10;99.90
19292;DHT22;9779;51.756;7.450;2023-02-19T05:24:54;9.10;99.90
19292;DHT22;9779;51.756;7.450;2023-02-19T05:27:19;9.10;99.90
19292;DHT22;9779;51.756;7.450;2023-02-19T05:29:45;9.10;99.90
19292;DHT22;9779;51.756;7.450;2023-02-19T05:32:10;9.10;99.90
19292;DHT22;9779;51.756;7.450;2023-02-19T05:34:36;9.10;99.90
19292;DHT22;9779;51.756;7.450;2023-02-19T05:37:01;9.10;99.90
19292;DHT22;9779;51.756;7.450;2023-02-19T05:39:27;9.10;99.90
19292;DHT22;9779;51.756;7.450;2023-02-19T05:41:52;9.10;99.90
19292;DHT22;9779;51.756;7.450;2023-02-19T05:44:18;9.10;99.90
19292;DHT22;9779;51.756;7.450;2023-02-19T05:46:43;9.10;99.90
19292;DHT22;9779;51.756;7.450;2023-02-19T05:49:09;9.10;99.90
19292;DHT22;9779;51.756;7.450;2023-02-19T05:51:34;9.10;99.90
19292;DHT22;9779;51.756;7.450;2023-02-19T05:54:00;9.10;99.90
19292;DHT22;9779;51.756;7.450;2023-02-19T05:58:52;9.10;99.90
19292;DHT22;9779;51.756;7.450;2023-02-19T06:01:20;9.10;99.90
19292;DHT22;9779;51.756;7.450;2023-02-19T06:03:45;9.10;99.90
19292;DHT22;9779;51.756;7.450;2023-02-19T06:06:15;9.10;99.90
19292;DHT22;9779;51.756;7.450;2023-02-19T06:08:41;9.00;99.90
19292;DHT22;9779;51.756;7.450;2023-02-19T06:11:07;9.00;99.90
19292;DHT22;9779;51.756;7.450;2023-02-19T06:13:32;9.00;99.90
19292;DHT22;9779;51.756;7.450;2023-02-19T06:15:58;9.10;99.90
19292;DHT22;9779;51.756;7.450;2023-02-19T06:18:23;9.00;99.90
19292;DHT22;9779;51.756;7.450;2023-02-19T06:20:49;9.00;99.90
19292;DHT22;9779;51.756;7.450;2023-02-19T06:23:14;9.00;99.90
19292;DHT22;9779;51.756;7.450;2023-02-19T06:25:40;9.00;99.90
19292;DHT22;9779;51.756;7.450;2023-02-19T06:28:06;9.00;99.90
19292;DHT22;9779;51.756;7.450;2023-02-19T06:30:33;9.00;99.90
19292;DHT22;9779;51.756;7.450;2023-02-19T06:32:59;9.00;99.90
19292;DHT22;9779;51.756;7.450;2023-02-19T06:35:24;9.00;99.90
19292;DHT22;9779;51.756;7.450;2023-02-19T06:37:50;9.00;99.90
19292;DHT22;9779;51.756;7.450;2023-02-19T06:40:15;9.00;99.90
19292;DHT22;9779;51.756;7.450;2023-02-19T06:42:41;9.00;99.90
19292;DHT22;9779;51.756;7.450;2023-02-19T06:45:07;9.00;99.90
19292;DHT22;9779;51.756;7.450;2023-02-19T06:47:33;9.00;99.90
19292;DHT22;9779;51.756;7.450;2023-02-19T06:49:59;9.00;99.90
19292;DHT22;9779;51.756;7.450;2023-02-19T06:52:25;9.00;99.90
19292;DHT22;9779;51.756;7.450;2023-02-19T06:54:51;9.00;99.90
19292;DHT22;9779;51.756;7.450;2023-02-19T06:57:17;9.00;99.90
19292;DHT22;9779;51.756;7.450;2023-02-19T06:59:43;8.90;99.90
19292;DHT22;9779;51.756;7.450;2023-02-19T07:02:12;8.90;99.90
19292;DHT22;9779;51.756;7.450;2023-02-19T07:04:37;9.00;99.90
19292;DHT22;9779;51.756;7.450;2023-02-19T07:07:03;8.90;99.90
19292;DHT22;9779;51.756;7.450;2023-02-19T07:09:29;9.00;99.90
19292;DHT22;9779;51.756;7.450;2023-02-19T07:11:55;9.00;99.90
19292;DHT22;9779;51.756;7.450;2023-02-19T07:14:20;9.00;99.90
19292;DHT22;9779;51.756;7.450;2023-02-19T07:16:46;9.00;99.90
19292;DHT22;9779;51.756;7.450;2023-02-19T07:19:13;9.00;99.90
19292;DHT22;9779;51.756;7.450;2023-02-19T07:21:40;9.00;99.90
19292;DHT22;9779;51.756;7.450;2023-02-19T07:24:07;9.00;99.90
19292;DHT22;9779;51.756;7.450;2023-02-19T07:26:33;9.00;99.90
19292;DHT22;9779;51.756;7.450;2023-02-19T07:28:59;9.00;99.90
19292;DHT22;9779;51.756;7.450;2023-02-19T07:31:26;9.00;99.90
19292;DHT22;9779;51.756;7.450;2023-02-19T07:33:51;9.00;99.90
19292;DHT22;9779;51.756;7.450;2023-02-19T07:36:18;9.00;99.90
19292;DHT22;9779;51.756;7.450;2023-02-19T07:38:44;9.00;99.90
19292;DHT22;9779;51.756;7.450;2023-02-19T07:41:10;9.00;99.90
19292;DHT22;9779;51.756;7.450;2023-02-19T07:43:36;9.00;99.90
19292;DHT22;9779;51.756;7.450;2023-02-19T07:46:10;9.00;99.90
19292;DHT22;9779;51.756;7.450;2023-02-19T07:48:37;9.00;99.90
19292;DHT22;9779;51.756;7.450;2023-02-19T07:51:05;9.10;99.90
19292;DHT22;9779;51.756;7.450;2023-02-19T07:53:32;9.00;99.90
19292;DHT22;9779;51.756;7.450;2023-02-19T07:56:06;9.10;99.90
19292;DHT22;9779;51.756;7.450;2023-02-19T07:58:33;9.10;99.90
19292;DHT22;9779;51.756;7.450;2023-02-19T08:01:06;9.10;99.90
19292;DHT22;9779;51.756;7.450;2023-02-19T08:03:32;9.00;99.90
19292;DHT22;9779;51.756;7.450;2023-02-19T08:05:57;9.10;99.90
19292;DHT22;9779;51.756;7.450;2023-02-19T08:08:23;9.10;99.90
19292;DHT22;9779;51.756;7.450;2023-02-19T08:10:48;9.10;99.90
19292;DHT22;9779;51.756;7.450;2023-02-19T08:13:33;9.10;99.90
19292;DHT22;9779;51.756;7.450;2023-02-19T08:18:28;9.10;99.90
19292;DHT22;9779;51.756;7.450;2023-02-19T08:20:55;9.10;99.90
19292;DHT22;9779;51.756;7.450;2023-02-19T08:23:21;9.10;99.90
19292;DHT22;9779;51.756;7.450;2023-02-19T08:25:49;9.10;99.90
19292;DHT22;9779;51.756;7.450;2023-02-19T08:28:15;9.10;99.90
19292;DHT22;9779;51.756;7.450;2023-02-19T08:30:42;9.10;99.90
19292;DHT22;9779;51.756;7.450;2023-02-19T08:33:14;9.20;99.90
19292;DHT22;9779;51.756;7.450;2023-02-19T08:35:39;9.20;99.90
19292;DHT22;9779;51.756;7.450;2023-02-19T08:38:07;9.20;99.90
19292;DHT22;9779;51.756;7.450;2023-02-19T08:40:33;9.20;99.90
19292;DHT22;9779;51.756;7.450;2023-02-19T08:43:10;9.20;99.90
19292;DHT22;9779;51.756;7.450;2023-02-19T08:45:41;9.20;99.90
19292;DHT22;9779;51.756;7.450;2023-02-19T08:48:07;9.20;99.90
19292;DHT22;9779;51.756;7.450;2023-02-19T08:50:34;9.20;99.90
19292;DHT22;9779;51.756;7.450;2023-02-19T08:53:00;9.20;99.90
19292;DHT22;9779;51.756;7.450;2023-02-19T08:55:26;9.20;99.90
19292;DHT22;9779;51.756;7.450;2023-02-19T08:57:52;9.20;99.90
19292;DHT22;9779;51.756;7.450;2023-02-19T09:00:18;9.20;99.90
19292;DHT22;9779;51.756;7.450;2023-02-19T09:02:46;9.20;99.90
19292;DHT22;9779;51.756;7.450;2023-02-19T09:05:11;9.20;99.90
19292;DHT22;9779;51.756;7.450;2023-02-19T09:07:37;9.10;99.90
19292;DHT22;9779;51.756;7.450;2023-02-19T09:10:03;9.10;99.90
19292;DHT22;9779;51.756;7.450;2023-02-19T09:12:29;9.10;99.90
19292;DHT22;9779;51.756;7.450;2023-02-19T09:14:54;9.20;99.90
19292;DHT22;9779;51.756;7.450;2023-02-19T09:17:20;9.10;99.90
19292;DHT22;9779;51.756;7.450;2023-02-19T09:19:46;9.10;99.90
19292;DHT22;9779;51.756;7.450;2023-02-19T09:22:11;9.10;99.90
19292;DHT22;9779;51.756;7.450;2023-02-19T09:24:37;9.10;99.90
19292;DHT22;9779;51.756;7.450;2023-02-19T09:27:02;9.10;99.90
19292;DHT22;9779;51.756;7.450;2023-02-19T09:29:28;9.10;99.90
19292;DHT22;9779;51.756;7.450;2023-02-19T09:31:59;9.20;99.90
19292;DHT22;9779;51.756;7.450;2023-02-19T09:34:26;9.20;99.90
19292;DHT22;9779;51.756;7.450;2023-02-19T09:36:52;9.00;99.90
19292;DHT22;9779;51.756;7.450;2023-02-19T09:39:18;8.80;99.90
19292;DHT22;9779;51.756;7.450;2023-02-19T09:41:57;8.70;99.90
19292;DHT22;9779;51.756;7.450;2023-02-19T09:44:32;8.60;99.90
19292;DHT22;9779;51.756;7.450;2023-02-19T09:46:59;8.50;99.90
19292;DHT22;9779;51.756;7.450;2023-02-19T09:49:35;8.40;99.90
19292;DHT22;9779;51.756;7.450;2023-02-19T09:52:12;8.40;99.90
19292;DHT22;9779;51.756;7.450;2023-02-19T09:54:40;8.40;99.90
19292;DHT22;9779;51.756;7.450;2023-02-19T09:57:14;8.40;99.90
19292;DHT22;9779;51.756;7.450;2023-02-19T09:59:48;8.40;99.90
19292;DHT22;9779;51.756;7.450;2023-02-19T10:02:20;8.40;99.90
19292;DHT22;9779;51.756;7.450;2023-02-19T10:04:47;8.40;99.90
19292;DHT22;9779;51.756;7.450;2023-02-19T10:07:14;8.40;99.90
19292;DHT22;9779;51.756;7.450;2023-02-19T10:09:42;8.40;99.90
19292;DHT22;9779;51.756;7.450;2023-02-19T10:12:24;8.40;99.90
19292;DHT22;9779;51.756;7.450;2023-02-19T10:14:53;8.30;99.90
19292;DHT22;9779;51.756;7.450;2023-02-19T10:17:29;8.30;99.90
19292;DHT22;9779;51.756;7.450;2023-02-19T10:19:56;8.30;99.90
19292;DHT22;9779;51.756;7.450;2023-02-19T10:22:23;8.30;99.90
19292;DHT22;9779;51.756;7.450;2023-02-19T10:24:52;8.20;99.90
19292;DHT22;9779;51.756;7.450;2023-02-19T10:27:18;8.10;99.90
19292;DHT22;9779;51.756;7.450;2023-02-19T10:29:46;8.20;99.90
19292;DHT22;9779;51.756;7.450;2023-02-19T10:32:24;8.20;99.90
19292;DHT22;9779;51.756;7.450;2023-02-19T10:35:22;8.20;99.90
19292;DHT22;9779;51.756;7.450;2023-02-19T10:37:49;8.30;99.90
19292;DHT22;9779;51.756;7.450;2023-02-19T10:40:19;8.40;99.90
19292;DHT22;9779;51.756;7.450;2023-02-19T10:42:57;8.40;99.90
19292;DHT22;9779;51.756;7.450;2023-02-19T10:45:39;8.30;99.90
19292;DHT22;9779;51.756;7.450;2023-02-19T10:48:21;8.30;99.90
19292;DHT22;9779;51.756;7.450;2023-02-19T10:50:51;8.30;99.90
19292;DHT22;9779;51.756;7.450;2023-02-19T10:53:23;8.20;99.90
19292;DHT22;9779;51.756;7.450;2023-02-19T10:56:06;8.20;99.90
19292;DHT22;9779;51.756;7.450;2023-02-19T10:58:32;8.20;99.90
19292;DHT22;9779;51.756;7.450;2023-02-19T11:01:20;8.20;99.90
19292;DHT22;9779;51.756;7.450;2023-02-19T11:03:50;8.20;99.90
19292;DHT22;9779;51.756;7.450;2023-02-19T11:06:19;8.40;99.90
19292;DHT22;9779;51.756;7.450;2023-02-19T11:08:55;8.30;99.90
19292;DHT22;9779;51.756;7.450;2023-02-19T11:11:26;8.30;99.90
19292;DHT22;9779;51.756;7.450;2023-02-19T11:13:54;8.30;99.90
19292;DHT22;9779;51.756;7.450;2023-02-19T11:16:21;8.40;99.90
19292;DHT22;9779;51.756;7.450;2023-02-19T11:18:53;8.40;99.90
19292;DHT22;9779;51.756;7.450;2023-02-19T11:21:29;8.50;99.90
19292;DHT22;9779;51.756;7.450;2023-02-19T11:23:58;8.50;99.90
19292;DHT22;9779;51.756;7.450;2023-02-19T11:26:28;8.50;99.90
19292;DHT22;9779;51.756;7.450;2023-02-19T11:28:57;8.50;99.90
19292;DHT22;9779;51.756;7.450;2023-02-19T11:34:42;8.40;99.90
19292;DHT22;9779;51.756;7.450;2023-02-19T11:37:17;8.50;99.90
19292;DHT22;9779;51.756;7.450;2023-02-19T11:39:45;8.50;99.90
19292;DHT22;9779;51.756;7.450;2023-02-19T11:42:32;8.50;99.90
19292;DHT22;9779;51.756;7.450;2023-02-19T11:53:26;8.60;99.90
19292;DHT22;9779;51.756;7.450;2023-02-19T11:56:17;8.60;99.90
19292;DHT22;9779;51.756;7.450;2023-02-19T12:07:43;8.70;99.90
19292;DHT22;9779;51.756;7.450;2023-02-19T12:13:22;8.70;99.90
19292;DHT22;9779;51.756;7.450;2023-02-19T12:16:12;8.60;99.90
19292;DHT22;9779;51.756;7.450;2023-02-19T12:21:34;8.70;99.90
19292;DHT22;9779;51.756;7.450;2023-02-19T12:33:13;8.60;99.90
19292;DHT22;9779;51.756;7.450;2023-02-19T12:38:28;8.50;99.90
19292;DHT22;9779;51.756;7.450;2023-02-19T12:41:09;8.50;99.90
19292;DHT22;9779;51.756;7.450;2023-02-19T12:43:40;8.60;99.90
19292;DHT22;9779;51.756;7.450;2023-02-19T12:46:19;8.60;99.90
19292;DHT22;9779;51.756;7.450;2023-02-19T12:51:35;8.70;99.90
19292;DHT22;9779;51.756;7.450;2023-02-19T12:54:05;8.60;99.90
19292;DHT22;9779;51.756;7.450;2023-02-19T12:56:39;8.70;99.90
19292;DHT22;9779;51.756;7.450;2023-02-19T12:59:11;8.70;99.90
19292;DHT22;9779;51.756;7.450;2023-02-19T13:01:50;8.70;99.90
19292;DHT22;9779;51.756;7.450;2023-02-19T13:06:54;8.60;99.90
19292;DHT22;9779;51.756;7.450;2023-02-19T13:09:32;8.70;99.90
19292;DHT22;9779;51.756;7.450;2023-02-19T13:12:40;8.70;99.90
19292;DHT22;9779;51.756;7.450;2023-02-19T13:15:01;8.70;99.90
19292;DHT22;9779;51.756;7.450;2023-02-19T13:17:44;8.60;99.90
19292;DHT22;9779;51.756;7.450;2023-02-19T13:20:29;8.70;99.90
19292;DHT22;9779;51.756;7.450;2023-02-19T13:23:15;8.70;99.90
19292;DHT22;9779;51.756;7.450;2023-02-19T13:37:46;8.70;99.90
19292;DHT22;9779;51.756;7.450;2023-02-19T13:40:33;8.70;99.90
19292;DHT22;9779;51.756;7.450;2023-02-19T13:43:02;9.30;99.90
19292;DHT22;9779;51.756;7.450;2023-02-19T13:45:36;9.90;99.90
19292;DHT22;9779;51.756;7.450;2023-02-19T13:50:48;9.40;99.90
19292;DHT22;9779;51.756;7.450;2023-02-19T14:17:26;8.80;99.90
19292;DHT22;9779;51.756;7.450;2023-02-19T14:23:07;8.70;99.90
19292;DHT22;9779;51.756;7.450;2023-02-19T14:25:45;8.60;99.90
19292;DHT22;9779;51.756;7.450;2023-02-19T14:28:30;8.70;99.90
19292;DHT22;9779;51.756;7.450;2023-02-19T14:33:37;8.70;99.90
19292;DHT22;9779;51.756;7.450;2023-02-19T14:39:17;8.60;99.90
19292;DHT22;9779;51.756;7.450;2023-02-19T14:41:44;8.60;99.90
19292;DHT22;9779;51.756;7.450;2023-02-19T14:44:21;8.60;99.90
19292;DHT22;9779;51.756;7.450;2023-02-19T14:47:06;8.60;99.90
19292;DHT22;9779;51.756;7.450;2023-02-19T14:49:40;8.60;99.90
19292;DHT22;9779;51.756;7.450;2023-02-19T14:52:57;8.60;99.90
19292;DHT22;9779;51.756;7.450;2023-02-19T14:55:00;8.60;99.90
19292;DHT22;9779;51.756;7.450;2023-02-19T14:57:37;8.70;99.90
19292;DHT22;9779;51.756;7.450;2023-02-19T15:02:49;8.70;99.90
19292;DHT22;9779;51.756;7.450;2023-02-19T15:05:23;8.70;99.90
19292;DHT22;9779;51.756;7.450;2023-02-19T15:07:49;8.70;99.90
19292;DHT22;9779;51.756;7.450;2023-02-19T15:10:15;8.60;99.90
19292;DHT22;9779;51.756;7.450;2023-02-19T15:12:55;8.60;99.90
19292;DHT22;9779;51.756;7.450;2023-02-19T15:15:27;8.60;99.90
19292;DHT22;9779;51.756;7.450;2023-02-19T15:17:54;8.60;99.90
19292;DHT22;9779;51.756;7.450;2023-02-19T15:20:30;8.60;99.90
19292;DHT22;9779;51.756;7.450;2023-02-19T15:22:58;8.60;99.90
19292;DHT22;9779;51.756;7.450;2023-02-19T15:25:32;8.60;99.90
19292;DHT22;9779;51.756;7.450;2023-02-19T15:33:22;8.50;99.90
19292;DHT22;9779;51.756;7.450;2023-02-19T15:35:49;8.60;99.90
19292;DHT22;9779;51.756;7.450;2023-02-19T15:38:16;8.60;99.90
19292;DHT22;9779;51.756;7.450;2023-02-19T15:40:45;8.50;99.90
19292;DHT22;9779;51.756;7.450;2023-02-19T15:43:27;8.50;99.90
19292;DHT22;9779;51.756;7.450;2023-02-19T15:45:58;8.50;99.90
19292;DHT22;9779;51.756;7.450;2023-02-19T15:48:34;8.50;99.90
19292;DHT22;9779;51.756;7.450;2023-02-19T15:51:05;8.60;99.90
19292;DHT22;9779;51.756;7.450;2023-02-19T15:53:42;8.50;99.90
19292;DHT22;9779;51.756;7.450;2023-02-19T15:58:51;8.50;99.90
19292;DHT22;9779;51.756;7.450;2023-02-19T16:01:34;8.50;99.90
19292;DHT22;9779;51.756;7.450;2023-02-19T16:04:00;8.50;99.90
19292;DHT22;9779;51.756;7.450;2023-02-19T16:06:27;8.50;99.90
19292;DHT22;9779;51.756;7.450;2023-02-19T16:09:05;8.50;99.90
19292;DHT22;9779;51.756;7.450;2023-02-19T16:11:39;8.50;99.90
19292;DHT22;9779;51.756;7.450;2023-02-19T16:14:38;8.50;99.90
19292;DHT22;9779;51.756;7.450;2023-02-19T16:19:55;8.50;99.90
19292;DHT22;9779;51.756;7.450;2023-02-19T16:22:25;8.50;99.90
19292;DHT22;9779;51.756;7.450;2023-02-19T16:25:00;8.50;99.90
19292;DHT22;9779;51.756;7.450;2023-02-19T16:27:39;8.50;99.90
19292;DHT22;9779;51.756;7.450;2023-02-19T16:35:56;8.50;99.90
19292;DHT22;9779;51.756;7.450;2023-02-19T16:38:22;8.40;99.90
19292;DHT22;9779;51.756;7.450;2023-02-19T16:45:43;8.40;99.90
19292;DHT22;9779;51.756;7.450;2023-02-19T16:48:09;8.40;99.90
19292;DHT22;9779;51.756;7.450;2023-02-19T16:50:35;8.30;99.90
19292;DHT22;9779;51.756;7.450;2023-02-19T16:53:02;8.30;99.90
19292;DHT22;9779;51.756;7.450;2023-02-19T16:55:29;8.30;99.90
19292;DHT22;9779;51.756;7.450;2023-02-19T16:57:56;8.30;99.90
19292;DHT22;9779;51.756;7.450;2023-02-19T17:00:24;8.30;99.90
19292;DHT22;9779;51.756;7.450;2023-02-19T17:02:52;8.30;99.90
19292;DHT22;9779;51.756;7.450;2023-02-19T17:05:19;8.20;99.90
19292;DHT22;9779;51.756;7.450;2023-02-19T17:07:46;8.20;99.90
19292;DHT22;9779;51.756;7.450;2023-02-19T17:10:16;8.20;99.90
19292;DHT22;9779;51.756;7.450;2023-02-19T17:12:42;8.20;99.90
19292;DHT22;9779;51.756;7.450;2023-02-19T17:15:08;8.20;99.90
19292;DHT22;9779;51.756;7.450;2023-02-19T17:17:33;8.20;99.90
19292;DHT22;9779;51.756;7.450;2023-02-19T17:19:59;8.10;99.90
19292;DHT22;9779;51.756;7.450;2023-02-19T17:22:25;8.10;99.90
19292;DHT22;9779;51.756;7.450;2023-02-19T17:24:50;8.20;99.90
19292;DHT22;9779;51.756;7.450;2023-02-19T17:27:16;8.10;99.90
19292;DHT22;9779;51.756;7.450;2023-02-19T17:29:42;8.10;99.90
19292;DHT22;9779;51.756;7.450;2023-02-19T17:32:08;8.00;99.90
19292;DHT22;9779;51.756;7.450;2023-02-19T17:34:34;8.00;99.90
19292;DHT22;9779;51.756;7.450;2023-02-19T17:36:59;8.00;99.90
19292;DHT22;9779;51.756;7.450;2023-02-19T17:39:25;8.00;99.90
19292;DHT22;9779;51.756;7.450;2023-02-19T17:41:51;8.00;99.90
19292;DHT22;9779;51.756;7.450;2023-02-19T17:44:16;8.00;99.90
19292;DHT22;9779;51.756;7.450;2023-02-19T17:46:45;8.00;99.90
19292;DHT22;9779;51.756;7.450;2023-02-19T17:49:11;8.00;99.90
19292;DHT22;9779;51.756;7.450;2023-02-19T17:51:38;7.90;99.90
19292;DHT22;9779;51.756;7.450;2023-02-19T17:54:04;7.90;99.90
19292;DHT22;9779;51.756;7.450;2023-02-19T17:56:31;7.90;99.90
19292;DHT22;9779;51.756;7.450;2023-02-19T17:58:57;7.80;99.90
19292;DHT22;9779;51.756;7.450;2023-02-19T18:01:24;7.80;99.90
19292;DHT22;9779;51.756;7.450;2023-02-19T18:03:50;7.80;99.90
19292;DHT22;9779;51.756;7.450;2023-02-19T18:06:15;7.80;99.90
19292;DHT22;9779;51.756;7.450;2023-02-19T18:08:51;7.70;99.90
19292;DHT22;9779;51.756;7.450;2023-02-19T18:11:18;7.70;99.90
19292;DHT22;9779;51.756;7.450;2023-02-19T18:13:44;7.70;99.90
19292;DHT22;9779;51.756;7.450;2023-02-19T18:16:09;7.70;99.90
19292;DHT22;9779;51.756;7.450;2023-02-19T18:18:35;7.70;99.90
19292;DHT22;9779;51.756;7.450;2023-02-19T18:21:02;7.70;99.90
19292;DHT22;9779;51.756;7.450;2023-02-19T18:23:28;7.70;99.90
19292;DHT22;9779;51.756;7.450;2023-02-19T18:25:53;7.60;99.90
19292;DHT22;9779;51.756;7.450;2023-02-19T18:28:19;7.60;99.90
19292;DHT22;9779;51.756;7.450;2023-02-19T18:30:45;7.60;99.90
19292;DHT22;9779;51.756;7.450;2023-02-19T18:33:10;7.60;99.90
19292;DHT22;9779;51.756;7.450;2023-02-19T18:35:37;7.60;99.90
19292;DHT22;9779;51.756;7.450;2023-02-19T18:38:03;7.60;99.90
19292;DHT22;9779;51.756;7.450;2023-02-19T18:40:29;7.40;99.90
19292;DHT22;9779;51.756;7.450;2023-02-19T18:42:54;7.50;99.90
19292;DHT22;9779;51.756;7.450;2023-02-19T18:45:21;7.50;99.90
19292;DHT22;9779;51.756;7.450;2023-02-19T18:47:47;7.50;99.90
19292;DHT22;9779;51.756;7.450;2023-02-19T18:50:14;7.40;99.90